sensor_id;sensor_type;location;lat;lon;timestamp;pressure;altitude;pressure_sealevel;temperature;humidity
53908;BME280;40469;47.998;7.794;2023-05-22T00:01:14;98610.94;;;14.02;100.00
53908;BME280;40469;47.998;7.794;2023-05-22T00:03:43;98613.50;;;14.06;100.00
53908;BME280;40469;47.998;7.794;2023-05-22T00:06:08;98615.47;;;13.97;100.00
53908;BME280;40469;47.998;7.794;2023-05-22T00:08:36;98608.72;;;13.89;100.00
53908;BME280;40469;47.998;7.794;2023-05-22T00:11:01;98599.13;;;13.89;100.00
53908;BME280;40469;47.998;7.794;2023-05-22T00:13:27;98600.03;;;13.87;100.00
53908;BME280;40469;47.998;7.794;2023-05-22T00:15:53;98597.63;;;13.80;100.00
53908;BME280;40469;47.998;7.794;2023-05-22T00:18:18;98598.38;;;13.84;100.00
53908;BME280;40469;47.998;7.794;2023-05-22T00:20:43;98595.75;;;13.84;100.00
53908;BME280;40469;47.998;7.794;2023-05-22T00:23:12;98595.75;;;13.84;100.00
53908;BME280;40469;47.998;7.794;2023-05-22T00:25:38;98596.59;;;13.84;100.00
53908;BME280;40469;47.998;7.794;2023-05-22T00:28:03;98593.28;;;13.78;100.00
53908;BME280;40469;47.998;7.794;2023-05-22T00:30:29;98598.47;;;13.81;100.00
53908;BME280;40469;47.998;7.794;2023-05-22T00:32:55;98604.56;;;13.81;100.00
53908;BME280;40469;47.998;7.794;2023-05-22T00:35:21;98599.06;;;13.91;100.00
53908;BME280;40469;47.998;7.794;2023-05-22T00:37:46;98602.53;;;13.91;100.00
53908;BME280;40469;47.998;7.794;2023-05-22T00:40:13;98601.63;;;13.92;100.00
53908;BME280;40469;47.998;7.794;2023-05-22T00:42:42;98613.53;;;14.04;100.00
53908;BME280;40469;47.998;7.794;2023-05-22T00:45:09;98609.13;;;14.04;100.00
53908;BME280;40469;47.998;7.794;2023-05-22T00:47:35;98614.34;;;14.06;100.00
53908;BME280;40469;47.998;7.794;2023-05-22T00:50:00;98618.47;;;14.15;100.00
53908;BME280;40469;47.998;7.794;2023-05-22T00:52:26;98617.41;;;14.20;100.00
53908;BME280;40469;47.998;7.794;2023-05-22T00:54:52;98619.94;;;14.23;100.00
53908;BME280;40469;47.998;7.794;2023-05-22T00:57:18;98625.94;;;14.29;100.00
53908;BME280;40469;47.998;7.794;2023-05-22T00:59:44;98618.13;;;14.26;100.00
53908;BME280;40469;47.998;7.794;2023-05-22T01:02:10;98622.41;;;14.30;100.00
53908;BME280;40469;47.998;7.794;2023-05-22T01:04:37;98621.41;;;14.34;100.00
53908;BME280;40469;47.998;7.794;2023-05-22T01:07:03;98613.47;;;14.35;100.00
53908;BME280;40469;47.998;7.794;2023-05-22T01:09:30;98611.66;;;14.37;100.00
53908;BME280;40469;47.998;7.794;2023-05-22T01:12:33;98615.00;;;14.43;100.00
53908;BME280;40469;47.998;7.794;2023-05-22T01:15:22;98611.56;;;14.40;100.00
53908;BME280;40469;47.998;7.794;2023-05-22T01:20:31;98611.69;;;14.36;100.00
53908;BME280;40469;47.998;7.794;2023-05-22T01:23:30;98609.78;;;14.41;100.00
53908;BME280;40469;47.998;7.794;2023-05-22T01:31:36;98617.38;;;14.22;100.00
53908;BME280;40469;47.998;7.794;2023-05-22T01:34:03;98620.88;;;14.22;100.00
53908;BME280;40469;47.998;7.794;2023-05-22T01:36:31;98619.88;;;14.27;100.00
53908;BME280;40469;47.998;7.794;2023-05-22T01:38:59;98617.28;;;14.25;100.00
53908;BME280;40469;47.998;7.794;2023-05-22T01:41:27;98611.19;;;14.25;100.00
53908;BME280;40469;47.998;7.794;2023-05-22T01:43:53;98610.59;;;14.15;100.00
53908;BME280;40469;47.998;7.794;2023-05-22T01:46:18;98620.38;;;14.10;100.00
53908;BME280;40469;47.998;7.794;2023-05-22T01:48:43;98611.59;;;14.11;100.00
53908;BME280;40469;47.998;7.794;2023-05-22T01:51:21;98620.59;;;14.02;100.00
53908;BME280;40469;47.998;7.794;2023-05-22T01:53:52;98616.16;;;14.04;100.00
53908;BME280;40469;47.998;7.794;2023-05-22T01:56:29;98611.88;;;14.01;100.00
53908;BME280;40469;47.998;7.794;2023-05-22T01:59:20;98618.66;;;14.09;100.00
53908;BME280;40469;47.998;7.794;2023-05-22T02:01:49;98616.94;;;14.08;100.00
53908;BME280;40469;47.998;7.794;2023-05-22T02:04:18;98612.50;;;14.10;100.00
53908;BME280;40469;47.998;7.794;2023-05-22T02:06:44;98617.97;;;14.02;100.00
53908;BME280;40469;47.998;7.794;2023-05-22T02:09:11;98614.34;;;14.06;100.00
53908;BME280;40469;47.998;7.794;2023-05-22T02:11:38;98613.53;;;14.04;100.00
53908;BME280;40469;47.998;7.794;2023-05-22T02:14:04;98620.47;;;14.07;100.00
53908;BME280;40469;47.998;7.794;2023-05-22T02:16:30;98621.31;;;14.07;100.00
53908;BME280;40469;47.998;7.794;2023-05-22T02:18:59;98614.22;;;14.11;100.00
53908;BME280;40469;47.998;7.794;2023-05-22T02:21:33;98615.00;;;14.14;100.00
53908;BME280;40469;47.998;7.794;2023-05-22T02:23:59;98608.84;;;14.15;100.00
53908;BME280;40469;47.998;7.794;2023-05-22T02:26:25;98607.09;;;14.14;100.00
53908;BME280;40469;47.998;7.794;2023-05-22T02:28:50;98601.72;;;14.19;100.00
53908;BME280;40469;47.998;7.794;2023-05-22T02:31:15;98598.09;;;14.23;100.00
53908;BME280;40469;47.998;7.794;2023-05-22T02:33:42;98599.09;;;14.19;100.00
53908;BME280;40469;47.998;7.794;2023-05-22T02:36:08;98589.41;;;14.21;100.00
53908;BME280;40469;47.998;7.794;2023-05-22T02:38:35;98589.47;;;14.19;100.00
53908;BME280;40469;47.998;7.794;2023-05-22T02:41:01;98594.66;;;14.21;100.00
53908;BME280;40469;47.998;7.794;2023-05-22T02:43:26;98598.88;;;14.27;100.00
53908;BME280;40469;47.998;7.794;2023-05-22T02:45:52;98586.75;;;14.22;100.00
53908;BME280;40469;47.998;7.794;2023-05-22T02:48:17;98592.03;;;14.21;100.00
53908;BME280;40469;47.998;7.794;2023-05-22T02:50:43;98590.34;;;14.18;100.00
53908;BME280;40469;47.998;7.794;2023-05-22T02:53:08;98588.53;;;14.20;100.00
53908;BME280;40469;47.998;7.794;2023-05-22T02:55:34;98589.38;;;14.22;100.00
53908;BME280;40469;47.998;7.794;2023-05-22T02:58:00;98591.91;;;14.24;100.00
53908;BME280;40469;47.998;7.794;2023-05-22T03:00:25;98586.75;;;14.22;100.00
53908;BME280;40469;47.998;7.794;2023-05-22T03:02:51;98593.69;;;14.23;100.00
53908;BME280;40469;47.998;7.794;2023-05-22T03:05:16;98598.00;;;14.26;100.00
53908;BME280;40469;47.998;7.794;2023-05-22T03:07:42;98595.47;;;14.23;100.00
53908;BME280;40469;47.998;7.794;2023-05-22T03:10:08;98596.31;;;14.23;100.00
53908;BME280;40469;47.998;7.794;2023-05-22T03:12:33;98600.59;;;14.28;100.00
53908;BME280;40469;47.998;7.794;2023-05-22T03:14:59;98601.34;;;14.31;100.00
53908;BME280;40469;47.998;7.794;2023-05-22T03:17:24;98603.91;;;14.33;100.00
53908;BME280;40469;47.998;7.794;2023-05-22T03:19:49;98598.63;;;14.34;100.00
53908;BME280;40469;47.998;7.794;2023-05-22T03:22:15;98596.75;;;14.38;100.00
53908;BME280;40469;47.998;7.794;2023-05-22T03:24:42;98591.53;;;14.36;100.00
53908;BME280;40469;47.998;7.794;2023-05-22T03:27:07;98602.84;;;14.40;100.00
53908;BME280;40469;47.998;7.794;2023-05-22T03:29:33;98601.13;;;14.39;100.00
53908;BME280;40469;47.998;7.794;2023-05-22T03:31:58;98601.13;;;14.39;100.00
53908;BME280;40469;47.998;7.794;2023-05-22T03:34:24;98605.47;;;14.40;100.00
53908;BME280;40469;47.998;7.794;2023-05-22T03:36:51;98606.28;;;14.42;100.00
53908;BME280;40469;47.998;7.794;2023-05-22T03:39:16;98607.97;;;14.43;100.00
53908;BME280;40469;47.998;7.794;2023-05-22T03:41:41;98615.69;;;14.49;100.00
53908;BME280;40469;47.998;7.794;2023-05-22T03:44:07;98613.19;;;14.45;100.00
53908;BME280;40469;47.998;7.794;2023-05-22T03:46:32;98614.88;;;14.47;100.00
53908;BME280;40469;47.998;7.794;2023-05-22T03:48:57;98616.53;;;14.50;100.00
53908;BME280;40469;47.998;7.794;2023-05-22T03:51:23;98611.28;;;14.50;100.00
53908;BME280;40469;47.998;7.794;2023-05-22T03:53:48;98615.84;;;14.43;100.00
53908;BME280;40469;47.998;7.794;2023-05-22T03:56:13;98610.50;;;14.46;100.00
53908;BME280;40469;47.998;7.794;2023-05-22T03:58:39;98606.88;;;14.50;100.00
53908;BME280;40469;47.998;7.794;2023-05-22T04:01:04;98608.78;;;14.45;100.00
53908;BME280;40469;47.998;7.794;2023-05-22T04:03:29;98611.31;;;14.48;100.00
53908;BME280;40469;47.998;7.794;2023-05-22T04:05:55;98614.75;;;14.50;100.00
53908;BME280;40469;47.998;7.794;2023-05-22T04:08:23;98622.69;;;14.49;100.00
53908;BME280;40469;47.998;7.794;2023-05-22T04:10:48;98618.44;;;14.45;100.00
53908;BME280;40469;47.998;7.794;2023-05-22T04:13:15;98620.13;;;14.47;100.00
53908;BME280;40469;47.998;7.794;2023-05-22T04:15:41;98615.72;;;14.48;100.00
53908;BME280;40469;47.998;7.794;2023-05-22T04:18:09;98622.78;;;14.46;100.00
53908;BME280;40469;47.998;7.794;2023-05-22T04:20:36;98623.91;;;14.38;100.00
53908;BME280;40469;47.998;7.794;2023-05-22T04:23:01;98622.28;;;14.33;100.00
53908;BME280;40469;47.998;7.794;2023-05-22T04:25:26;98627.50;;;14.34;100.00
53908;BME280;40469;47.998;7.794;2023-05-22T04:27:52;98627.47;;;14.36;100.00
53908;BME280;40469;47.998;7.794;2023-05-22T04:30:17;98628.19;;;14.41;100.00
53908;BME280;40469;47.998;7.794;2023-05-22T04:32:43;98629.03;;;14.41;100.00
53908;BME280;40469;47.998;7.794;2023-05-22T04:35:09;98630.75;;;14.43;100.00
53908;BME280;40469;47.998;7.794;2023-05-22T04:37:36;98639.69;;;14.37;100.00
53908;BME280;40469;47.998;7.794;2023-05-22T04:40:02;98636.19;;;14.36;100.00
53908;BME280;40469;47.998;7.794;2023-05-22T04:42:32;98646.81;;;14.33;100.00
53908;BME280;40469;47.998;7.794;2023-05-22T04:44:58;98639.78;;;14.34;100.00
53908;BME280;40469;47.998;7.794;2023-05-22T04:47:24;98638.88;;;14.35;100.00
53908;BME280;40469;47.998;7.794;2023-05-22T04:49:49;98639.66;;;14.38;100.00
53908;BME280;40469;47.998;7.794;2023-05-22T04:52:15;98638.59;;;14.44;100.00
53908;BME280;40469;47.998;7.794;2023-05-22T04:54:41;98641.03;;;14.50;100.00
53908;BME280;40469;47.998;7.794;2023-05-22T04:57:08;98645.19;;;14.57;100.00
53908;BME280;40469;47.998;7.794;2023-05-22T04:59:35;98643.22;;;14.66;100.00
53908;BME280;40469;47.998;7.794;2023-05-22T05:02:05;98648.22;;;14.73;100.00
53908;BME280;40469;47.998;7.794;2023-05-22T05:04:30;98644.38;;;14.84;100.00
53908;BME280;40469;47.998;7.794;2023-05-22T05:06:56;98645.09;;;14.89;100.00
53908;BME280;40469;47.998;7.794;2023-05-22T05:09:22;98642.13;;;15.00;100.00
53908;BME280;40469;47.998;7.794;2023-05-22T05:12:09;98648.75;;;15.11;100.00
53908;BME280;40469;47.998;7.794;2023-05-22T05:14:34;98655.25;;;15.26;100.00
53908;BME280;40469;47.998;7.794;2023-05-22T05:17:00;98652.44;;;15.32;100.00
53908;BME280;40469;47.998;7.794;2023-05-22T05:19:26;98655.66;;;15.41;100.00
53908;BME280;40469;47.998;7.794;2023-05-22T05:21:51;98645.72;;;15.49;100.00
53908;BME280;40469;47.998;7.794;2023-05-22T05:24:17;98649.91;;;15.54;100.00
53908;BME280;40469;47.998;7.794;2023-05-22T05:26:43;98643.59;;;15.60;100.00
53908;BME280;40469;47.998;7.794;2023-05-22T05:29:08;98648.63;;;15.66;100.00
53908;BME280;40469;47.998;7.794;2023-05-22T05:31:34;98637.88;;;15.72;100.00
53908;BME280;40469;47.998;7.794;2023-05-22T05:33:59;98644.69;;;15.80;100.00
53908;BME280;40469;47.998;7.794;2023-05-22T05:36:24;98640.03;;;15.86;100.00
53908;BME280;40469;47.998;7.794;2023-05-22T05:38:50;98646.88;;;15.92;100.00
53908;BME280;40469;47.998;7.794;2023-05-22T05:41:15;98642.16;;;16.00;100.00
53908;BME280;40469;47.998;7.794;2023-05-22T05:43:41;98649.78;;;16.08;100.00
53908;BME280;40469;47.998;7.794;2023-05-22T05:46:06;98652.19;;;16.14;100.00
53908;BME280;40469;47.998;7.794;2023-05-22T05:48:32;98650.28;;;16.18;100.00
53908;BME280;40469;47.998;7.794;2023-05-22T05:50:57;98651.81;;;16.23;100.00
53908;BME280;40469;47.998;7.794;2023-05-22T05:53:22;98651.44;;;16.34;100.00
53908;BME280;40469;47.998;7.794;2023-05-22T05:55:47;98653.13;;;16.35;100.00
53908;BME280;40469;47.998;7.794;2023-05-22T05:58:13;98655.47;;;16.43;100.00
53908;BME280;40469;47.998;7.794;2023-05-22T06:00:38;98651.72;;;16.50;100.00
53908;BME280;40469;47.998;7.794;2023-05-22T06:03:06;98649.66;;;16.57;100.00
53908;BME280;40469;47.998;7.794;2023-05-22T06:05:31;98652.91;;;16.63;100.00
53908;BME280;40469;47.998;7.794;2023-05-22T06:07:57;98663.28;;;16.68;100.00
53908;BME280;40469;47.998;7.794;2023-05-22T06:10:23;98654.16;;;16.77;100.00
53908;BME280;40469;47.998;7.794;2023-05-22T06:12:48;98658.56;;;16.76;100.00
53908;BME280;40469;47.998;7.794;2023-05-22T06:15:13;98660.78;;;16.87;100.00
53908;BME280;40469;47.998;7.794;2023-05-22T06:17:39;98663.03;;;16.98;100.00
53908;BME280;40469;47.998;7.794;2023-05-22T06:20:05;98667.84;;;17.09;100.00
53908;BME280;40469;47.998;7.794;2023-05-22T06:22:31;98661.34;;;17.17;100.00
53908;BME280;40469;47.998;7.794;2023-05-22T06:24:56;98668.06;;;17.24;100.00
53908;BME280;40469;47.998;7.794;2023-05-22T06:27:23;98666.25;;;17.47;100.00
53908;BME280;40469;47.998;7.794;2023-05-22T06:29:49;98669.34;;;17.57;100.00
53908;BME280;40469;47.998;7.794;2023-05-22T06:32:15;98670.84;;;17.62;100.00
53908;BME280;40469;47.998;7.794;2023-05-22T06:34:45;98666.75;;;17.76;100.00
53908;BME280;40469;47.998;7.794;2023-05-22T06:37:10;98670.84;;;17.83;100.00
53908;BME280;40469;47.998;7.794;2023-05-22T06:39:37;98665.78;;;17.99;100.00
53908;BME280;40469;47.998;7.794;2023-05-22T06:42:02;98669.13;;;18.03;100.00
53908;BME280;40469;47.998;7.794;2023-05-22T06:44:28;98672.44;;;18.08;100.00
53908;BME280;40469;47.998;7.794;2023-05-22T06:46:53;98665.56;;;18.23;100.00
53908;BME280;40469;47.998;7.794;2023-05-22T06:49:18;98652.44;;;18.21;100.00
53908;BME280;40469;47.998;7.794;2023-05-22T06:51:44;98660.94;;;18.28;100.00
53908;BME280;40469;47.998;7.794;2023-05-22T06:54:10;98660.88;;;18.29;100.00
53908;BME280;40469;47.998;7.794;2023-05-22T06:56:38;98657.84;;;18.37;100.00
53908;BME280;40469;47.998;7.794;2023-05-22T06:59:03;98659.38;;;18.43;100.00
53908;BME280;40469;47.998;7.794;2023-05-22T07:01:28;98666.22;;;18.47;100.00
53908;BME280;40469;47.998;7.794;2023-05-22T07:03:56;98668.22;;;18.61;100.00
53908;BME280;40469;47.998;7.794;2023-05-22T07:06:22;98662.81;;;18.64;100.00
53908;BME280;40469;47.998;7.794;2023-05-22T07:08:49;98667.06;;;18.66;100.00
53908;BME280;40469;47.998;7.794;2023-05-22T07:11:14;98667.53;;;18.57;100.00
53908;BME280;40469;47.998;7.794;2023-05-22T07:13:40;98662.44;;;18.52;100.00
53908;BME280;40469;47.998;7.794;2023-05-22T07:16:06;98662.44;;;18.52;100.00
53908;BME280;40469;47.998;7.794;2023-05-22T07:18:32;98666.56;;;18.58;100.00
53908;BME280;40469;47.998;7.794;2023-05-22T07:20:57;98665.16;;;18.51;100.00
53908;BME280;40469;47.998;7.794;2023-05-22T07:23:22;98665.16;;;18.51;100.00
53908;BME280;40469;47.998;7.794;2023-05-22T07:25:48;98660.44;;;18.57;100.00
53908;BME280;40469;47.998;7.794;2023-05-22T07:28:13;98666.56;;;18.58;100.00
53908;BME280;40469;47.998;7.794;2023-05-22T07:30:38;98667.00;;;18.49;100.00
53908;BME280;40469;47.998;7.794;2023-05-22T07:33:04;98668.50;;;18.54;100.00
53908;BME280;40469;47.998;7.794;2023-05-22T07:35:29;98662.38;;;18.54;100.00
53908;BME280;40469;47.998;7.794;2023-05-22T07:37:55;98662.69;;;18.48;100.00
53908;BME280;40469;47.998;7.794;2023-05-22T07:40:21;98664.31;;;18.50;100.00
53908;BME280;40469;47.998;7.794;2023-05-22T07:42:46;98664.94;;;18.55;100.00
53908;BME280;40469;47.998;7.794;2023-05-22T07:45:11;98670.31;;;18.54;100.00
53908;BME280;40469;47.998;7.794;2023-05-22T07:47:37;98665.72;;;18.57;100.00
53908;BME280;40469;47.998;7.794;2023-05-22T07:50:02;98658.81;;;18.55;100.00
53908;BME280;40469;47.998;7.794;2023-05-22T07:52:29;98660.88;;;18.67;100.00
53908;BME280;40469;47.998;7.794;2023-05-22T07:54:56;98657.84;;;18.75;100.00
53908;BME280;40469;47.998;7.794;2023-05-22T07:57:21;98657.78;;;18.76;100.00
53908;BME280;40469;47.998;7.794;2023-05-22T07:59:47;98652.13;;;18.84;100.00
53908;BME280;40469;47.998;7.794;2023-05-22T08:02:13;98657.38;;;19.03;100.00
53908;BME280;40469;47.998;7.794;2023-05-22T08:04:38;98654.81;;;19.02;100.00
53908;BME280;40469;47.998;7.794;2023-05-22T08:07:04;98658.16;;;19.05;100.00
53908;BME280;40469;47.998;7.794;2023-05-22T08:09:29;98648.13;;;19.12;100.00
53908;BME280;40469;47.998;7.794;2023-05-22T08:11:55;98658.34;;;19.20;100.00
53908;BME280;40469;47.998;7.794;2023-05-22T08:14:21;98646.75;;;19.22;100.00
53908;BME280;40469;47.998;7.794;2023-05-22T08:16:46;98661.69;;;19.23;100.00
53908;BME280;40469;47.998;7.794;2023-05-22T08:19:11;98663.34;;;19.26;100.00
53908;BME280;40469;47.998;7.794;2023-05-22T08:21:37;98661.31;;;19.31;100.00
53908;BME280;40469;47.998;7.794;2023-05-22T08:24:02;98659.94;;;19.41;100.00
53908;BME280;40469;47.998;7.794;2023-05-22T08:26:28;98657.56;;;19.52;100.00
53908;BME280;40469;47.998;7.794;2023-05-22T08:28:53;98660.84;;;19.75;100.00
53908;BME280;40469;47.998;7.794;2023-05-22T08:31:18;98660.03;;;19.91;100.00
53908;BME280;40469;47.998;7.794;2023-05-22T08:33:44;98661.56;;;20.12;100.00
53908;BME280;40469;47.998;7.794;2023-05-22T08:36:09;98657.09;;;20.13;100.00
53908;BME280;40469;47.998;7.794;2023-05-22T08:38:35;98658.69;;;20.49;100.00
53908;BME280;40469;47.998;7.794;2023-05-22T08:41:01;98659.63;;;20.48;100.00
53908;BME280;40469;47.998;7.794;2023-05-22T08:43:27;98650.56;;;20.52;100.00
53908;BME280;40469;47.998;7.794;2023-05-22T08:45:59;98653.22;;;20.68;100.00
53908;BME280;40469;47.998;7.794;2023-05-22T08:48:31;98658.22;;;20.74;100.00
53908;BME280;40469;47.998;7.794;2023-05-22T08:50:57;98662.03;;;20.84;100.00
53908;BME280;40469;47.998;7.794;2023-05-22T08:53:27;98658.44;;;20.85;100.00
53908;BME280;40469;47.998;7.794;2023-05-22T08:55:53;98657.47;;;21.18;100.00
53908;BME280;40469;47.998;7.794;2023-05-22T08:58:19;98665.69;;;21.44;100.00
53908;BME280;40469;47.998;7.794;2023-05-22T09:00:45;98650.50;;;21.15;100.00
53908;BME280;40469;47.998;7.794;2023-05-22T09:03:11;98650.34;;;21.18;100.00
53908;BME280;40469;47.998;7.794;2023-05-22T09:05:40;98650.03;;;21.39;100.00
53908;BME280;40469;47.998;7.794;2023-05-22T09:08:06;98659.03;;;21.36;100.00
53908;BME280;40469;47.998;7.794;2023-05-22T09:10:33;98654.97;;;21.75;100.00
53908;BME280;40469;47.998;7.794;2023-05-22T09:13:08;98646.44;;;21.99;100.00
53908;BME280;40469;47.998;7.794;2023-05-22T09:15:35;98643.50;;;21.89;100.00
53908;BME280;40469;47.998;7.794;2023-05-22T09:18:04;98652.31;;;21.90;100.00
53908;BME280;40469;47.998;7.794;2023-05-22T09:20:39;98657.94;;;22.28;100.00
53908;BME280;40469;47.998;7.794;2023-05-22T09:23:11;98640.66;;;22.36;100.00
53908;BME280;40469;47.998;7.794;2023-05-22T09:25:40;98647.84;;;22.48;100.00
53908;BME280;40469;47.998;7.794;2023-05-22T09:28:06;98645.97;;;23.04;100.00
53908;BME280;40469;47.998;7.794;2023-05-22T09:30:33;98647.38;;;23.10;100.00
53908;BME280;40469;47.998;7.794;2023-05-22T09:33:00;98650.59;;;23.15;100.00
53908;BME280;40469;47.998;7.794;2023-05-22T09:35:25;98638.47;;;23.11;100.00
53908;BME280;40469;47.998;7.794;2023-05-22T09:37:53;98642.78;;;23.39;100.00
53908;BME280;40469;47.998;7.794;2023-05-22T09:40:19;98635.31;;;23.32;100.00
53908;BME280;40469;47.998;7.794;2023-05-22T09:42:44;98637.81;;;23.60;100.00
53908;BME280;40469;47.998;7.794;2023-05-22T09:45:10;98634.72;;;23.66;100.00
53908;BME280;40469;47.998;7.794;2023-05-22T09:47:37;98629.50;;;23.78;100.00
53908;BME280;40469;47.998;7.794;2023-05-22T09:50:04;98629.63;;;23.89;100.00
53908;BME280;40469;47.998;7.794;2023-05-22T09:52:33;98626.09;;;24.14;100.00
53908;BME280;40469;47.998;7.794;2023-05-22T09:55:02;98631.81;;;24.21;100.00
53908;BME280;40469;47.998;7.794;2023-05-22T09:57:31;98619.75;;;24.41;100.00
53908;BME280;40469;47.998;7.794;2023-05-22T09:59:58;98625.97;;;24.53;100.00
53908;BME280;40469;47.998;7.794;2023-05-22T10:02:25;98615.78;;;24.84;100.00
53908;BME280;40469;47.998;7.794;2023-05-22T10:04:51;98621.56;;;25.02;100.00
53908;BME280;40469;47.998;7.794;2023-05-22T10:07:31;98622.06;;;25.07;100.00
53908;BME280;40469;47.998;7.794;2023-05-22T10:10:06;98624.31;;;25.24;100.00
53908;BME280;40469;47.998;7.794;2023-05-22T10:12:32;98628.72;;;25.83;100.00
53908;BME280;40469;47.998;7.794;2023-05-22T10:15:01;98622.94;;;26.12;100.00
53908;BME280;40469;47.998;7.794;2023-05-22T10:17:27;98618.78;;;26.08;100.00
53908;BME280;40469;47.998;7.794;2023-05-22T10:19:53;98615.84;;;26.56;100.00
53908;BME280;40469;47.998;7.794;2023-05-22T10:22:19;98620.84;;;26.38;100.00
53908;BME280;40469;47.998;7.794;2023-05-22T10:24:49;98618.41;;;25.90;100.00
53908;BME280;40469;47.998;7.794;2023-05-22T10:27:16;98609.59;;;26.78;100.00
53908;BME280;40469;47.998;7.794;2023-05-22T10:29:48;98608.09;;;26.85;100.00
53908;BME280;40469;47.998;7.794;2023-05-22T10:32:24;98607.44;;;26.72;100.00
53908;BME280;40469;47.998;7.794;2023-05-22T10:35:17;98603.81;;;26.94;100.00
53908;BME280;40469;47.998;7.794;2023-05-22T10:37:48;98603.13;;;27.13;100.00
53908;BME280;40469;47.998;7.794;2023-05-22T10:40:20;98606.09;;;27.31;100.00
53908;BME280;40469;47.998;7.794;2023-05-22T10:42:46;98596.69;;;27.58;100.00
53908;BME280;40469;47.998;7.794;2023-05-22T10:45:12;98600.53;;;27.65;100.00
53908;BME280;40469;47.998;7.794;2023-05-22T10:47:37;98594.22;;;27.45;100.00
53908;BME280;40469;47.998;7.794;2023-05-22T10:52:29;98584.94;;;27.17;100.00
53908;BME280;40469;47.998;7.794;2023-05-22T10:54:55;98576.53;;;27.21;100.00
53908;BME280;40469;47.998;7.794;2023-05-22T10:57:22;98572.06;;;27.11;100.00
53908;BME280;40469;47.998;7.794;2023-05-22T10:59:48;98585.00;;;26.73;100.00
53908;BME280;40469;47.998;7.794;2023-05-22T11:02:24;98577.88;;;26.40;100.00
53908;BME280;40469;47.998;7.794;2023-05-22T11:05:31;98581.72;;;26.81;100.00
53908;BME280;40469;47.998;7.794;2023-05-22T11:10:55;98575.41;;;27.24;100.00
53908;BME280;40469;47.998;7.794;2023-05-22T11:13:26;98571.50;;;27.28;100.00
53908;BME280;40469;47.998;7.794;2023-05-22T11:15:53;98578.78;;;27.37;100.00
53908;BME280;40469;47.998;7.794;2023-05-22T11:18:18;98585.13;;;27.36;100.00
53908;BME280;40469;47.998;7.794;2023-05-22T11:20:45;98584.53;;;27.33;100.00
53908;BME280;40469;47.998;7.794;2023-05-22T11:23:10;98595.91;;;26.93;100.00
53908;BME280;40469;47.998;7.794;2023-05-22T11:25:37;98608.41;;;26.48;100.00
53908;BME280;40469;47.998;7.794;2023-05-22T11:28:04;98616.34;;;25.82;100.00
53908;BME280;40469;47.998;7.794;2023-05-22T11:30:31;98619.69;;;25.62;100.00
53908;BME280;40469;47.998;7.794;2023-05-22T11:32:57;98613.69;;;25.35;100.00
53908;BME280;40469;47.998;7.794;2023-05-22T11:35:23;98613.44;;;25.27;100.00
53908;BME280;40469;47.998;7.794;2023-05-22T11:37:50;98610.28;;;25.45;100.00
53908;BME280;40469;47.998;7.794;2023-05-22T11:40:21;98606.16;;;25.29;100.00
53908;BME280;40469;47.998;7.794;2023-05-22T11:42:48;98600.28;;;25.00;100.00
53908;BME280;40469;47.998;7.794;2023-05-22T11:45:13;98596.91;;;24.74;100.00
53908;BME280;40469;47.998;7.794;2023-05-22T11:47:39;98601.69;;;24.45;100.00
53908;BME280;40469;47.998;7.794;2023-05-22T11:50:09;98609.06;;;24.54;100.00
53908;BME280;40469;47.998;7.794;2023-05-22T11:52:36;98616.09;;;24.55;100.00
53908;BME280;40469;47.998;7.794;2023-05-22T11:55:03;98621.47;;;24.29;100.00
53908;BME280;40469;47.998;7.794;2023-05-22T11:57:36;98621.38;;;24.31;100.00
53908;BME280;40469;47.998;7.794;2023-05-22T12:00:04;98618.41;;;24.10;100.00
53908;BME280;40469;47.998;7.794;2023-05-22T12:02:30;98613.28;;;24.07;100.00
53908;BME280;40469;47.998;7.794;2023-05-22T12:04:57;98607.44;;;23.89;100.00
53908;BME280;40469;47.998;7.794;2023-05-22T12:07:23;98607.56;;;23.87;100.00
53908;BME280;40469;47.998;7.794;2023-05-22T12:09:49;98604.53;;;23.79;100.00
53908;BME280;40469;47.998;7.794;2023-05-22T12:12:15;98606.56;;;23.75;100.00
53908;BME280;40469;47.998;7.794;2023-05-22T12:14:44;98597.63;;;23.76;100.00
53908;BME280;40469;47.998;7.794;2023-05-22T12:17:14;98601.78;;;23.67;100.00
53908;BME280;40469;47.998;7.794;2023-05-22T12:19:40;98590.16;;;23.69;100.00
53908;BME280;40469;47.998;7.794;2023-05-22T12:22:07;98594.09;;;23.63;100.00
53908;BME280;40469;47.998;7.794;2023-05-22T12:24:39;98589.19;;;23.57;100.00
53908;BME280;40469;47.998;7.794;2023-05-22T12:27:09;98591.53;;;23.48;100.00
53908;BME280;40469;47.998;7.794;2023-05-22T12:29:35;98593.16;;;23.51;100.00
53908;BME280;40469;47.998;7.794;2023-05-22T12:32:09;98589.41;;;23.54;100.00
53908;BME280;40469;47.998;7.794;2023-05-22T12:34:42;98592.81;;;23.56;100.00
53908;BME280;40469;47.998;7.794;2023-05-22T12:37:20;98586.53;;;23.57;100.00
53908;BME280;40469;47.998;7.794;2023-05-22T12:40:01;98594.97;;;23.63;100.00
53908;BME280;40469;47.998;7.794;2023-05-22T12:42:27;98599.00;;;23.56;100.00
53908;BME280;40469;47.998;7.794;2023-05-22T12:44:54;98591.75;;;23.45;100.00
53908;BME280;40469;47.998;7.794;2023-05-22T12:47:21;98594.09;;;23.63;100.00
53908;BME280;40469;47.998;7.794;2023-05-22T12:49:47;98595.91;;;23.62;100.00
53908;BME280;40469;47.998;7.794;2023-05-22T12:52:12;98585.59;;;23.58;100.00
53908;BME280;40469;47.998;7.794;2023-05-22T12:54:38;98588.44;;;23.55;100.00
53908;BME280;40469;47.998;7.794;2023-05-22T12:57:03;98589.00;;;23.60;100.00
53908;BME280;40469;47.998;7.794;2023-05-22T12:59:28;98583.31;;;23.64;100.00
53908;BME280;40469;47.998;7.794;2023-05-22T13:01:55;98576.38;;;23.75;100.00
53908;BME280;40469;47.998;7.794;2023-05-22T13:04:26;98574.66;;;24.12;100.00